Weather at Tannehill Airfield

Public forecast

Using degrees Fahrenheit for public forecast. Weather courtesy of forecast.io.

Closest aviation weather report (METAR) to Tannehill Airfield

Closest report is Cherry Capital Airport, 14.7 nm (27.2 km) NW. Retrieved 2021/10/28 13:16 UTC (2 minutes ago):

KTVC 281316Z 09006KT 10SM FEW019 BKN250 12/08 A2984 RMK AO2 T01170083

Closest aviation forecast (TAF) to Tannehill Airfield

Closest forecast is Cherry Capital Airport, 14.7 nm (27.2 km) NW. Retrieved 2021/10/28 12:36 UTC (42 minutes ago):

TAF KTVC 281135Z 2812/2912 VRB04KT P6SM OVC015 FM281500 09007KT P6SM OVC026 FM281600 09007KT P6SM BKN050 FM290600 VRB04KT P6SM BKN070 FM290900 VRB04KT P6SM BKN030